Time;durP1;ratioP1;P1;durP2;ratioP2;P2;SDS_P1;SDS_P2;PMS_P1;PMS_P2;Temp;Humidity;BMP_temperature;BMP_pressure;BME280_temperature;BME280_humidity;BME280_pressure;Samples;Min_cycle;Max_cycle;Signal;HPM_P1;HPM_P2
2021/08/07 00:02:13;;;;;;;5.57;1.80;;;17.80;59.10;;;;;;5030882;28;20514;-81
2021/08/07 00:04:40;;;;;;;4.97;2.00;;;17.80;59.20;;;;;;5049323;28;20083;-82
2021/08/07 00:07:06;;;;;;;2.60;1.95;;;17.80;59.30;;;;;;5049186;28;20132;-81
2021/08/07 00:09:32;;;;;;;3.60;1.63;;;17.70;59.10;;;;;;5031461;28;20388;-82
2021/08/07 00:11:58;;;;;;;2.00;1.15;;;17.80;59.40;;;;;;5049071;28;20033;-81
2021/08/07 00:14:24;;;;;;;3.72;1.60;;;17.70;59.30;;;;;;5049593;28;20032;-81
2021/08/07 00:16:52;;;;;;;5.40;1.77;;;17.70;59.40;;;;;;5048589;28;20024;-80
2021/08/07 00:19:18;;;;;;;4.40;1.98;;;17.60;59.30;;;;;;5031034;28;20041;-79
2021/08/07 00:21:44;;;;;;;7.13;2.58;;;17.60;59.40;;;;;;5049383;28;20464;-80
2021/08/07 00:24:10;;;;;;;4.30;1.77;;;17.60;59.50;;;;;;5048881;28;20040;-79
2021/08/07 00:26:37;;;;;;;5.53;2.15;;;17.60;59.60;;;;;;5030972;28;20043;-81
2021/08/07 00:29:03;;;;;;;4.80;1.75;;;17.50;59.40;;;;;;5049370;28;20032;-83
2021/08/07 00:31:29;;;;;;;4.93;1.77;;;17.50;59.60;;;;;;5034673;28;20383;-84
2021/08/07 00:33:58;;;;;;;4.53;1.90;;;17.50;59.60;;;;;;5066968;28;20475;-82
2021/08/07 00:36:27;;;;;;;4.75;2.15;;;17.50;59.70;;;;;;5034368;28;20078;-81
2021/08/07 00:38:54;;;;;;;5.47;2.00;;;17.40;59.60;;;;;;5058688;28;20037;-82
2021/08/07 00:41:22;;;;;;;7.45;2.00;;;17.40;59.70;;;;;;5048446;28;20499;-80
2021/08/07 00:43:49;;;;;;;9.32;2.42;;;17.40;59.70;;;;;;5030550;28;20037;-81
2021/08/07 00:46:24;;;;;;;5.28;1.60;;;17.40;59.80;;;;;;5015084;28;20052;-81
2021/08/07 00:48:52;;;;;;;6.32;2.03;;;17.30;59.70;;;;;;5038565;28;20068;-79
2021/08/07 00:51:20;;;;;;;3.65;1.55;;;17.30;59.70;;;;;;5050108;28;20028;-79
2021/08/07 00:53:49;;;;;;;3.35;2.00;;;17.30;59.80;;;;;;5041603;28;20033;-80
2021/08/07 00:56:20;;;;;;;5.85;2.10;;;17.30;59.90;;;;;;5030612;28;20319;-80
2021/08/07 00:58:51;;;;;;;3.83;1.63;;;17.30;59.90;;;;;;5030263;28;20021;-80
2021/08/07 01:01:21;;;;;;;4.38;1.90;;;17.30;59.90;;;;;;5030622;28;20033;-82
2021/08/07 01:03:49;;;;;;;5.93;1.80;;;17.20;59.80;;;;;;5037859;28;20020;-80
2021/08/07 01:06:25;;;;;;;6.28;2.38;;;17.20;59.90;;;;;;5066472;28;20150;-82
2021/08/07 01:09:22;;;;;;;4.13;1.70;;;17.20;59.90;;;;;;5042473;28;20033;-80
2021/08/07 01:12:02;;;;;;;5.05;2.20;;;17.20;60.00;;;;;;4992896;28;20037;-80
2021/08/07 01:14:42;;;;;;;5.13;2.08;;;17.20;60.10;;;;;;5028974;28;20021;-80
2021/08/07 01:17:14;;;;;;;5.50;1.95;;;17.20;60.10;;;;;;5038186;28;20036;-80
2021/08/07 01:20:11;;;;;;;3.78;1.90;;;17.10;60.00;;;;;;5077595;28;20572;-81
2021/08/07 01:23:08;;;;;;;3.63;2.10;;;17.10;60.00;;;;;;5031718;28;20407;-80
2021/08/07 01:25:57;;;;;;;5.07;1.95;;;17.10;60.00;;;;;;5033186;28;20036;-80
2021/08/07 01:28:36;;;;;;;4.47;2.05;;;17.10;60.10;;;;;;5062383;28;20484;-82
2021/08/07 01:31:06;;;;;;;3.30;1.65;;;17.10;60.10;;;;;;5025415;28;20030;-83
2021/08/07 01:33:33;;;;;;;4.35;1.65;;;17.00;60.10;;;;;;5014880;28;20128;-81
2021/08/07 01:36:05;;;;;;;4.88;1.90;;;17.00;60.00;;;;;;5027868;28;20538;-83
2021/08/07 01:38:36;;;;;;;4.47;1.70;;;17.00;60.10;;;;;;5031542;28;20509;-81
2021/08/07 01:41:03;;;;;;;4.35;1.98;;;17.00;60.20;;;;;;5048804;28;20033;-81
2021/08/07 01:43:32;;;;;;;4.32;1.95;;;16.90;60.10;;;;;;5031177;28;20060;-81
2021/08/07 01:46:03;;;;;;;2.95;1.88;;;16.90;60.10;;;;;;5029213;28;20028;-81
2021/08/07 01:49:06;;;;;;;3.53;1.70;;;16.90;60.20;;;;;;5033875;28;20519;-80
2021/08/07 01:51:52;;;;;;;5.00;2.20;;;16.80;60.20;;;;;;5013790;28;20137;-80
2021/08/07 01:54:31;;;;;;;4.15;1.73;;;16.80;60.20;;;;;;5014222;28;20108;-79
2021/08/07 01:57:08;;;;;;;4.85;2.10;;;16.80;60.30;;;;;;5030082;28;20491;-80
2021/08/07 01:59:35;;;;;;;3.92;2.00;;;16.80;60.30;;;;;;5030870;28;20061;-80
2021/08/07 02:02:03;;;;;;;5.40;1.83;;;16.80;60.30;;;;;;5013355;28;20463;-82
2021/08/07 02:04:41;;;;;;;5.45;2.42;;;16.70;60.20;;;;;;5030501;28;20064;-79
2021/08/07 02:07:18;;;;;;;4.05;1.80;;;16.70;60.30;;;;;;5030532;28;20037;-80
2021/08/07 02:09:48;;;;;;;4.97;1.80;;;16.70;60.30;;;;;;5013789;28;20032;-79
2021/08/07 02:12:15;;;;;;;4.03;1.50;;;16.60;60.20;;;;;;5013738;28;20400;-79
2021/08/07 02:14:50;;;;;;;5.60;2.22;;;16.60;60.20;;;;;;5014072;28;20034;-80
2021/08/07 02:17:20;;;;;;;4.65;1.60;;;16.60;60.30;;;;;;5026296;28;20037;-80
2021/08/07 02:19:48;;;;;;;4.50;1.80;;;16.60;60.30;;;;;;5049904;28;20032;-80
2021/08/07 02:22:18;;;;;;;4.60;1.73;;;16.60;60.40;;;;;;5049603;28;20033;-80
2021/08/07 02:24:44;;;;;;;5.47;2.00;;;16.50;60.30;;;;;;5050027;28;20480;-79
2021/08/07 02:27:19;;;;;;;4.97;1.77;;;16.50;60.30;;;;;;5049688;28;20044;-82
2021/08/07 02:29:46;;;;;;;5.15;1.73;;;16.50;60.40;;;;;;5051353;28;20033;-79
2021/08/07 02:32:15;;;;;;;3.28;1.63;;;16.50;60.40;;;;;;5059105;28;20058;-80
2021/08/07 02:34:49;;;;;;;5.93;2.17;;;16.50;60.50;;;;;;5068842;28;20024;-79
2021/08/07 02:37:23;;;;;;;4.70;1.83;;;16.40;60.40;;;;;;5069713;28;20120;-80
2021/08/07 02:39:50;;;;;;;3.00;1.60;;;16.40;60.40;;;;;;5053426;28;20032;-80
2021/08/07 02:42:17;;;;;;;9.20;2.00;;;16.40;60.50;;;;;;5069531;28;20537;-79
2021/08/07 02:44:46;;;;;;;4.65;1.80;;;16.40;60.50;;;;;;5069621;28;20124;-78
2021/08/07 02:47:14;;;;;;;4.30;1.85;;;16.40;60.60;;;;;;5052807;28;20041;-79
2021/08/07 02:49:42;;;;;;;5.18;1.80;;;16.40;60.70;;;;;;5053268;28;20025;-80
2021/08/07 02:52:08;;;;;;;4.63;2.17;;;16.40;60.70;;;;;;5070912;28;20442;-81
2021/08/07 02:54:35;;;;;;;3.78;1.52;;;16.40;60.70;;;;;;5070218;28;20056;-79
2021/08/07 02:57:02;;;;;;;4.40;1.70;;;16.30;60.50;;;;;;5069631;28;20455;-79
2021/08/07 02:59:30;;;;;;;4.05;2.08;;;16.30;60.60;;;;;;5069999;28;20419;-79
2021/08/07 03:01:57;;;;;;;4.22;1.88;;;16.30;60.60;;;;;;5068718;28;20032;-81
2021/08/07 03:04:24;;;;;;;4.47;2.10;;;16.30;60.70;;;;;;5070052;28;20025;-82
2021/08/07 03:06:54;;;;;;;5.00;2.08;;;16.30;60.70;;;;;;5052738;28;20487;-83
2021/08/07 03:09:20;;;;;;;4.70;2.00;;;16.30;60.70;;;;;;5053165;28;20063;-81
2021/08/07 03:11:50;;;;;;;2.97;1.52;;;16.30;60.80;;;;;;5069234;28;20120;-80
2021/08/07 03:14:18;;;;;;;3.35;1.70;;;16.30;60.80;;;;;;5053411;28;20075;-81
2021/08/07 03:16:46;;;;;;;3.10;1.67;;;16.30;60.80;;;;;;5070428;28;20032;-82
2021/08/07 03:19:16;;;;;;;4.20;1.63;;;16.20;60.70;;;;;;5071108;28;20139;-82
2021/08/07 03:21:46;;;;;;;4.78;1.80;;;16.20;60.70;;;;;;5052879;28;20502;-81
2021/08/07 03:24:13;;;;;;;5.68;2.10;;;16.20;60.70;;;;;;5069289;28;20056;-81
2021/08/07 03:26:46;;;;;;;4.88;1.80;;;16.20;60.80;;;;;;5069545;28;20064;-82
2021/08/07 03:29:17;;;;;;;2.20;1.63;;;16.20;60.80;;;;;;5052556;28;20075;-81
2021/08/07 03:31:43;;;;;;;6.85;2.10;;;16.20;60.80;;;;;;5051965;28;20041;-80
2021/08/07 03:34:09;;;;;;;1.95;1.30;;;16.10;60.60;;;;;;5070034;28;20024;-80
2021/08/07 03:36:39;;;;;;;3.47;1.83;;;16.10;61.20;;;;;;5073054;28;20024;-82
2021/08/07 03:39:07;;;;;;;4.40;1.42;;;16.10;60.70;;;;;;5073025;28;20650;-81
2021/08/07 03:41:36;;;;;;;5.40;1.90;;;16.10;60.70;;;;;;5056045;28;20119;-82
2021/08/07 03:44:06;;;;;;;4.78;1.95;;;16.00;60.60;;;;;;5073289;28;20461;-81
2021/08/07 03:46:32;;;;;;;3.17;2.00;;;16.10;60.80;;;;;;5073995;28;20032;-81
2021/08/07 03:48:58;;;;;;;6.00;2.17;;;16.10;60.80;;;;;;5072704;28;20158;-80
2021/08/07 03:51:25;;;;;;;3.17;1.48;;;16.00;60.70;;;;;;5056129;28;20426;-81
2021/08/07 03:53:51;;;;;;;1.90;1.60;;;16.00;60.70;;;;;;5056567;28;20035;-80
2021/08/07 03:56:25;;;;;;;4.18;1.65;;;16.00;60.80;;;;;;5073589;28;20036;-81
2021/08/07 03:58:52;;;;;;;4.03;1.85;;;15.90;60.60;;;;;;5072677;28;20097;-81
2021/08/07 04:01:23;;;;;;;5.93;1.52;;;15.90;60.70;;;;;;5056076;28;20024;-80
2021/08/07 04:03:51;;;;;;;3.03;1.67;;;15.90;60.70;;;;;;5071987;28;20040;-81
2021/08/07 04:06:18;;;;;;;2.65;1.50;;;15.90;60.80;;;;;;5055966;28;20039;-80
2021/08/07 04:08:44;;;;;;;3.38;1.50;;;15.80;60.60;;;;;;5073458;28;20500;-80
2021/08/07 04:11:10;;;;;;;5.00;2.03;;;15.80;60.70;;;;;;5072345;28;20063;-81
2021/08/07 04:13:45;;;;;;;8.13;2.10;;;15.80;60.70;;;;;;5056557;28;20120;-81
2021/08/07 04:16:11;;;;;;;6.13;1.85;;;15.80;60.80;;;;;;5072404;28;20040;-80
2021/08/07 04:18:37;;;;;;;4.30;1.88;;;15.70;60.60;;;;;;5072284;28;20036;-80
2021/08/07 04:21:03;;;;;;;3.38;1.83;;;15.70;60.70;;;;;;5073488;28;20040;-79
2021/08/07 04:23:30;;;;;;;4.85;1.83;;;15.70;60.70;;;;;;5055545;28;20130;-80
2021/08/07 04:25:57;;;;;;;5.53;1.85;;;15.70;60.80;;;;;;5055135;28;20171;-79
2021/08/07 04:28:23;;;;;;;4.85;1.60;;;15.60;60.60;;;;;;5056777;28;20132;-79
2021/08/07 04:30:53;;;;;;;3.33;1.65;;;15.60;60.70;;;;;;5055655;28;20025;-79
2021/08/07 04:33:19;;;;;;;2.70;1.55;;;15.60;60.70;;;;;;5054526;28;20584;-78
2021/08/07 04:35:47;;;;;;;5.10;1.40;;;15.60;60.80;;;;;;5054879;28;20085;-80
2021/08/07 04:38:21;;;;;;;2.45;1.70;;;15.60;60.80;;;;;;5071603;28;20487;-80
2021/08/07 04:40:48;;;;;;;4.72;2.25;;;15.60;60.80;;;;;;5055223;28;20037;-80
2021/08/07 04:43:20;;;;;;;3.70;1.70;;;15.50;60.70;;;;;;5054648;28;20029;-81
2021/08/07 04:45:47;;;;;;;4.93;1.60;;;15.50;60.80;;;;;;5072276;28;20131;-80
2021/08/07 04:48:15;;;;;;;6.45;1.80;;;15.50;60.80;;;;;;5031619;28;20044;-80
2021/08/07 04:51:01;;;;;;;2.85;1.50;;;15.50;60.80;;;;;;5063282;28;20098;-83
2021/08/07 04:53:31;;;;;;;4.53;1.85;;;15.50;60.90;;;;;;5052101;28;20031;-83
2021/08/07 04:56:03;;;;;;;4.75;1.67;;;15.50;60.90;;;;;;5068418;28;20090;-81
2021/08/07 04:58:30;;;;;;;2.53;1.40;;;15.50;60.90;;;;;;5068664;28;20024;-82
2021/08/07 05:00:56;;;;;;;3.45;1.67;;;15.40;60.80;;;;;;5051709;28;20055;-82
2021/08/07 05:03:22;;;;;;;3.80;2.35;;;15.40;60.90;;;;;;5042507;28;20080;-81
2021/08/07 05:05:48;;;;;;;3.15;1.80;;;15.40;60.90;;;;;;5039371;28;20458;-81
2021/08/07 05:08:17;;;;;;;2.33;1.80;;;15.40;60.90;;;;;;5038502;28;20055;-81
2021/08/07 05:10:44;;;;;;;2.20;1.75;;;15.40;61.00;;;;;;5043028;28;20467;-79
2021/08/07 05:13:11;;;;;;;4.78;1.92;;;15.40;61.10;;;;;;5043270;28;20090;-79
2021/08/07 05:15:37;;;;;;;7.20;1.95;;;15.40;61.10;;;;;;5065841;28;20035;-79
2021/08/07 05:18:05;;;;;;;3.65;1.90;;;15.40;61.20;;;;;;5049466;28;20412;-80
2021/08/07 05:20:32;;;;;;;6.03;2.03;;;15.40;61.20;;;;;;5049816;28;20039;-80
2021/08/07 05:22:58;;;;;;;2.70;1.40;;;15.40;61.20;;;;;;5049310;28;20077;-80
2021/08/07 05:25:24;;;;;;;4.18;1.52;;;15.40;61.20;;;;;;5066062;28;20038;-80
2021/08/07 05:27:52;;;;;;;3.67;1.48;;;15.30;61.00;;;;;;5050287;28;20055;-80
2021/08/07 05:30:19;;;;;;;3.15;2.03;;;15.40;61.20;;;;;;5045678;28;20025;-78
2021/08/07 05:32:45;;;;;;;2.45;1.35;;;15.40;61.20;;;;;;5063163;28;20047;-78
2021/08/07 05:35:15;;;;;;;4.75;1.83;;;15.40;61.20;;;;;;5049369;28;20051;-79
2021/08/07 05:37:42;;;;;;;2.03;1.48;;;15.40;61.30;;;;;;5049119;28;20090;-79
2021/08/07 05:40:12;;;;;;;3.85;1.65;;;15.40;61.30;;;;;;5033093;28;20028;-79
2021/08/07 05:42:40;;;;;;;6.88;2.03;;;15.40;61.30;;;;;;5065993;28;20037;-80
2021/08/07 05:45:06;;;;;;;3.95;2.05;;;15.40;61.30;;;;;;5049662;28;20032;-80
2021/08/07 05:47:33;;;;;;;4.55;1.63;;;15.40;61.30;;;;;;5046369;28;20122;-80
2021/08/07 05:50:03;;;;;;;5.18;1.88;;;15.40;61.30;;;;;;5021120;28;20025;-79
2021/08/07 05:52:29;;;;;;;4.00;2.00;;;15.50;61.50;;;;;;5033445;28;20387;-79
2021/08/07 05:54:59;;;;;;;3.22;1.40;;;15.50;61.40;;;;;;5049031;28;20054;-78
2021/08/07 05:57:26;;;;;;;5.70;1.40;;;15.50;61.40;;;;;;5060876;28;20060;-83
2021/08/07 05:59:53;;;;;;;6.00;2.20;;;15.60;61.60;;;;;;5046803;28;20376;-80
2021/08/07 06:02:19;;;;;;;3.35;1.75;;;15.60;61.60;;;;;;5048956;28;20328;-80
2021/08/07 06:04:47;;;;;;;5.80;1.48;;;15.60;61.60;;;;;;5049335;28;20349;-84
2021/08/07 06:07:13;;;;;;;5.75;1.63;;;15.70;61.70;;;;;;5049671;28;20059;-80
2021/08/07 06:09:39;;;;;;;6.05;1.75;;;15.70;61.70;;;;;;5048890;28;20043;-81
2021/08/07 06:12:05;;;;;;;2.47;1.38;;;15.80;61.90;;;;;;5049390;28;20084;-83
2021/08/07 06:14:32;;;;;;;4.53;1.80;;;15.80;61.90;;;;;;5050070;28;20037;-80
2021/08/07 06:16:58;;;;;;;5.18;1.85;;;15.90;62.10;;;;;;5066682;28;20028;-83
2021/08/07 06:19:24;;;;;;;4.60;1.60;;;15.90;62.10;;;;;;5048391;28;20082;-82
2021/08/07 06:21:51;;;;;;;4.20;1.70;;;16.00;62.30;;;;;;5049433;28;20035;-79
2021/08/07 06:24:17;;;;;;;4.68;1.95;;;16.10;62.50;;;;;;5048279;28;20119;-82
2021/08/07 06:26:44;;;;;;;3.83;1.70;;;16.20;62.70;;;;;;5048356;28;20094;-78
2021/08/07 06:29:11;;;;;;;2.90;1.30;;;16.30;62.90;;;;;;5027424;28;20029;-78
2021/08/07 06:31:38;;;;;;;3.13;1.80;;;16.40;63.10;;;;;;5045075;28;20119;-86
2021/08/07 06:34:07;;;;;;;9.35;2.42;;;16.50;63.30;;;;;;5049670;28;20067;-84
2021/08/07 06:36:33;;;;;;;11.32;2.33;;;16.70;63.60;;;;;;5068255;28;20068;-83
2021/08/07 06:39:00;;;;;;;5.50;2.40;;;16.90;63.90;;;;;;5049661;28;20025;-85
2021/08/07 06:41:27;;;;;;;6.63;2.08;;;17.00;64.10;;;;;;5049890;28;20800;-84
2021/08/07 06:44:13;;;;;;;7.88;2.53;;;17.20;64.30;;;;;;5066928;28;20094;-85
2021/08/07 06:46:40;;;;;;;6.70;2.30;;;17.30;64.30;;;;;;5049412;28;20412;-84
2021/08/07 06:49:08;;;;;;;6.68;2.17;;;17.50;64.50;;;;;;5059238;28;20033;-86
2021/08/07 06:51:34;;;;;;;9.23;2.63;;;17.70;64.60;;;;;;5033345;28;20086;-90
2021/08/07 06:54:02;;;;;;;6.80;2.67;;;17.90;64.70;;;;;;5050665;28;20029;-81
2021/08/07 06:56:30;;;;;;;8.52;2.08;;;18.10;64.70;;;;;;5049286;28;20115;-84
2021/08/07 06:58:58;;;;;;;10.43;2.08;;;18.40;64.60;;;;;;5049608;28;20028;-85
2021/08/07 07:01:24;;;;;;;9.55;2.75;;;18.60;64.50;;;;;;5067037;28;20021;-88
2021/08/07 07:03:51;;;;;;;7.03;2.28;;;18.90;64.60;;;;;;5042750;28;20045;-82
2021/08/07 07:06:17;;;;;;;6.15;1.83;;;19.10;64.40;;;;;;5047329;28;20029;-86
2021/08/07 07:08:44;;;;;;;13.20;2.28;;;19.30;64.20;;;;;;5049338;28;20059;-89
2021/08/07 07:11:12;;;;;;;4.43;1.75;;;19.50;64.10;;;;;;5052366;28;20376;-86
2021/08/07 07:13:38;;;;;;;7.32;2.10;;;19.80;64.20;;;;;;5066497;28;20511;-85
2021/08/07 07:16:05;;;;;;;8.07;2.45;;;20.00;64.00;;;;;;5055065;28;20113;-92
2021/08/07 07:18:33;;;;;;;6.53;1.92;;;20.20;63.80;;;;;;5072743;28;20032;-86
2021/08/07 07:20:59;;;;;;;8.63;2.83;;;20.40;63.60;;;;;;5039456;28;20029;-91
2021/08/07 07:23:25;;;;;;;8.52;2.53;;;20.60;63.50;;;;;;5073585;28;20039;-89
2021/08/07 07:25:52;;;;;;;7.32;1.90;;;20.70;63.20;;;;;;5071601;28;20490;-89
2021/08/07 07:28:19;;;;;;;8.32;1.80;;;21.00;63.20;;;;;;5055356;28;20043;-88
2021/08/07 07:30:47;;;;;;;10.85;2.58;;;21.20;63.00;;;;;;5055089;28;20093;-89
2021/08/07 07:33:14;;;;;;;7.07;2.13;;;21.40;62.70;;;;;;5053533;28;20064;-88
2021/08/07 07:35:41;;;;;;;11.32;2.47;;;21.50;62.30;;;;;;5070720;28;20028;-88
2021/08/07 07:38:07;;;;;;;6.30;2.05;;;21.60;61.90;;;;;;5071775;28;20060;-89
2021/08/07 07:40:34;;;;;;;6.28;2.10;;;21.70;61.70;;;;;;5056177;28;20036;-88
2021/08/07 07:43:00;;;;;;;7.13;2.15;;;21.80;61.70;;;;;;5055696;28;20127;-85
2021/08/07 07:45:27;;;;;;;9.60;2.67;;;22.10;62.30;;;;;;5074711;28;20035;-90
2021/08/07 07:47:53;;;;;;;7.93;1.85;;;22.30;61.60;;;;;;5073285;28;20136;-87
2021/08/07 07:50:20;;;;;;;7.10;2.17;;;22.50;61.30;;;;;;5054467;28;20292;-88
2021/08/07 07:52:51;;;;;;;8.25;2.08;;;22.80;61.20;;;;;;5041449;28;20040;-89
2021/08/07 07:55:19;;;;;;;6.53;2.17;;;23.00;61.00;;;;;;5037212;28;20104;-93
2021/08/07 07:57:45;;;;;;;5.72;2.15;;;23.20;60.80;;;;;;5038428;28;20045;-86
2021/08/07 08:00:12;;;;;;;5.93;1.92;;;23.40;60.50;;;;;;5049377;28;20598;-88
2021/08/07 08:02:54;;;;;;;6.65;2.42;;;23.70;60.40;;;;;;5061557;28;20090;-83
2021/08/07 08:05:30;;;;;;;6.40;1.85;;;23.90;60.10;;;;;;5052944;28;20548;-85
2021/08/07 08:07:58;;;;;;;7.53;1.70;;;24.10;60.00;;;;;;5052504;28;20523;-83
2021/08/07 08:10:24;;;;;;;5.10;1.88;;;24.30;59.70;;;;;;5048303;28;20032;-85
2021/08/07 08:12:50;;;;;;;6.13;1.95;;;24.40;59.30;;;;;;5060347;28;20036;-87
2021/08/07 08:15:18;;;;;;;9.35;2.47;;;24.50;59.00;;;;;;5065079;28;20035;-84
2021/08/07 08:17:45;;;;;;;8.05;2.25;;;24.60;58.80;;;;;;5081199;28;20028;-88
2021/08/07 08:20:12;;;;;;;8.45;2.25;;;24.70;58.70;;;;;;5044857;28;20457;-89
2021/08/07 08:22:40;;;;;;;4.40;1.65;;;24.90;58.70;;;;;;5053510;28;20028;-84
2021/08/07 08:25:11;;;;;;;7.47;1.98;;;25.00;58.40;;;;;;5048094;28;20111;-85
2021/08/07 08:27:39;;;;;;;6.72;1.83;;;25.10;58.00;;;;;;5050289;28;20071;-85
2021/08/07 08:30:07;;;;;;;5.50;2.03;;;25.10;57.80;;;;;;5038593;28;20033;-85
2021/08/07 08:32:34;;;;;;;9.23;1.88;;;24.90;57.30;;;;;;5056794;28;20049;-85
2021/08/07 08:35:01;;;;;;;3.88;1.65;;;24.70;57.00;;;;;;5036578;28;20028;-83
2021/08/07 08:37:27;;;;;;;6.07;1.58;;;24.50;56.90;;;;;;5071243;28;20043;-87
2021/08/07 08:39:53;;;;;;;6.15;1.90;;;24.30;56.70;;;;;;5048836;28;20028;-90
2021/08/07 08:42:21;;;;;;;6.28;1.85;;;24.00;56.40;;;;;;5051947;28;20032;-87
2021/08/07 08:44:47;;;;;;;6.18;1.52;;;23.80;56.40;;;;;;5053080;28;20025;-89
2021/08/07 08:47:18;;;;;;;5.45;2.05;;;23.70;56.70;;;;;;5044597;28;20619;-86
2021/08/07 08:49:45;;;;;;;7.50;2.00;;;23.50;56.60;;;;;;5042627;28;20078;-89
2021/08/07 08:52:14;;;;;;;4.05;1.67;;;23.50;56.90;;;;;;5042328;28;20056;-83
2021/08/07 08:54:42;;;;;;;6.40;2.10;;;23.40;56.80;;;;;;5037293;28;20480;-88
2021/08/07 08:57:08;;;;;;;5.85;1.80;;;23.40;56.90;;;;;;5059432;28;20025;-89
2021/08/07 08:59:35;;;;;;;6.95;1.92;;;23.40;56.90;;;;;;5048132;28;20032;-88
2021/08/07 09:02:02;;;;;;;4.68;1.50;;;23.40;56.80;;;;;;5059613;28;20032;-86
2021/08/07 09:04:29;;;;;;;4.80;1.40;;;23.40;56.80;;;;;;5032827;28;20135;-87
2021/08/07 09:06:55;;;;;;;5.72;2.10;;;23.40;56.80;;;;;;5032240;28;20041;-86
2021/08/07 09:09:42;;;;;;;3.95;1.40;;;23.40;56.80;;;;;;5048507;28;20032;-90
2021/08/07 09:12:13;;;;;;;4.47;1.83;;;23.50;56.90;;;;;;5062447;28;20059;-84
2021/08/07 09:14:42;;;;;;;9.45;1.88;;;23.70;57.10;;;;;;5072043;28;20486;-86
2021/08/07 09:17:21;;;;;;;4.32;1.73;;;23.90;57.20;;;;;;5044390;28;20177;-90
2021/08/07 09:19:55;;;;;;;5.10;1.40;;;24.10;57.10;;;;;;5065143;28;20518;-87
2021/08/07 09:22:32;;;;;;;6.13;1.42;;;24.30;57.20;;;;;;5052274;28;20032;-89
2021/08/07 09:25:16;;;;;;;9.45;1.90;;;24.30;56.70;;;;;;5052117;28;20036;-89
2021/08/07 09:27:45;;;;;;;7.25;2.15;;;24.10;56.50;;;;;;5037226;28;20048;-89
2021/08/07 09:30:18;;;;;;;7.57;1.85;;;24.00;56.60;;;;;;5036878;28;20108;-91
2021/08/07 09:32:53;;;;;;;4.47;1.33;;;23.80;56.90;;;;;;5066492;28;20076;-83
2021/08/07 09:35:32;;;;;;;5.55;1.98;;;23.80;56.50;;;;;;5047216;28;20062;-83
2021/08/07 09:38:12;;;;;;;4.93;1.85;;;23.60;56.30;;;;;;5050911;28;20042;-82
2021/08/07 09:40:44;;;;;;;6.65;1.30;;;23.60;56.50;;;;;;5049657;28;20077;-82
2021/08/07 09:43:14;;;;;;;3.92;1.70;;;23.50;56.40;;;;;;5032833;28;20063;-84
2021/08/07 09:45:41;;;;;;;3.53;1.50;;;23.50;56.50;;;;;;5044958;28;20488;-85
2021/08/07 09:48:13;;;;;;;7.28;2.20;;;23.60;56.50;;;;;;5028748;28;20089;-82
2021/08/07 09:50:40;;;;;;;7.05;1.50;;;23.70;56.50;;;;;;5049912;28;20024;-83
2021/08/07 09:53:21;;;;;;;3.08;1.45;;;23.80;56.50;;;;;;5066536;28;20029;-84
2021/08/07 09:55:59;;;;;;;4.43;1.83;;;23.90;56.50;;;;;;5049708;28;20077;-82
2021/08/07 09:58:27;;;;;;;5.05;1.85;;;24.10;56.80;;;;;;5049491;28;20028;-82
2021/08/07 10:00:53;;;;;;;5.03;1.92;;;24.20;56.80;;;;;;5045226;28;20033;-81
2021/08/07 10:03:27;;;;;;;5.03;1.50;;;24.30;56.80;;;;;;5048577;28;20025;-81
2021/08/07 10:06:21;;;;;;;6.13;1.83;;;24.40;56.80;;;;;;5048842;28;20379;-83
2021/08/07 10:08:51;;;;;;;3.65;1.65;;;24.50;56.80;;;;;;5056262;28;20560;-82
2021/08/07 10:11:25;;;;;;;4.20;1.85;;;24.50;56.80;;;;;;5039125;28;20548;-77
2021/08/07 10:13:52;;;;;;;5.75;2.60;;;24.60;56.90;;;;;;5063002;28;20039;-77
2021/08/07 10:16:25;;;;;;;5.88;1.48;;;24.60;56.80;;;;;;5048508;28;20227;-77
2021/08/07 10:18:52;;;;;;;5.93;1.98;;;24.60;56.70;;;;;;5066447;28;20051;-77
2021/08/07 10:21:20;;;;;;;8.68;2.10;;;24.60;56.70;;;;;;5048529;28;20115;-78
2021/08/07 10:23:47;;;;;;;4.78;1.98;;;24.50;56.50;;;;;;5048668;28;20032;-79
2021/08/07 10:26:19;;;;;;;5.95;2.05;;;24.50;56.60;;;;;;5056705;28;20025;-80
2021/08/07 10:28:52;;;;;;;4.05;1.42;;;24.40;56.70;;;;;;5035460;28;20388;-82
2021/08/07 10:31:24;;;;;;;6.60;1.75;;;24.40;57.00;;;;;;5029890;28;20361;-85
2021/08/07 10:34:04;;;;;;;7.13;1.67;;;24.50;57.20;;;;;;5058814;28;20115;-82
2021/08/07 10:36:35;;;;;;;3.63;1.90;;;24.50;57.20;;;;;;5047171;28;20029;-83
2021/08/07 10:39:05;;;;;;;4.30;1.42;;;24.60;57.30;;;;;;5065425;28;20025;-84
2021/08/07 10:41:32;;;;;;;3.72;1.60;;;24.60;57.30;;;;;;5048687;28;20045;-83
2021/08/07 10:44:00;;;;;;;3.42;1.15;;;24.60;57.40;;;;;;5052562;28;20053;-80
2021/08/07 10:46:27;;;;;;;3.80;1.40;;;24.60;57.50;;;;;;5044829;28;20052;-81
2021/08/07 10:48:54;;;;;;;2.92;1.52;;;24.70;57.70;;;;;;5065430;28;20415;-82
2021/08/07 10:51:23;;;;;;;4.45;1.70;;;24.70;57.80;;;;;;5063830;28;20039;-80
2021/08/07 10:53:54;;;;;;;4.30;1.80;;;24.80;58.00;;;;;;5065310;28;20029;-81
2021/08/07 10:56:29;;;;;;;4.00;1.60;;;24.90;58.20;;;;;;5066514;28;20119;-78
2021/08/07 10:59:17;;;;;;;2.90;1.63;;;25.00;58.30;;;;;;5048822;28;20040;-83
2021/08/07 11:01:48;;;;;;;1.75;1.10;;;25.10;58.10;;;;;;5048061;28;20115;-81
2021/08/07 11:04:27;;;;;;;3.45;1.40;;;25.10;58.00;;;;;;5065279;28;20036;-83
2021/08/07 11:07:02;;;;;;;3.20;1.73;;;25.10;58.10;;;;;;5064130;28;20032;-81
2021/08/07 11:09:39;;;;;;;4.03;1.33;;;24.90;58.00;;;;;;5064358;28;20474;-82
2021/08/07 11:12:11;;;;;;;2.35;1.10;;;24.80;58.00;;;;;;5066052;28;20025;-84
2021/08/07 11:14:42;;;;;;;2.90;1.33;;;24.70;58.10;;;;;;5045229;28;20120;-82
2021/08/07 11:17:10;;;;;;;5.68;1.60;;;24.70;58.30;;;;;;5050725;28;20044;-84
2021/08/07 11:19:50;;;;;;;3.15;1.45;;;24.70;58.40;;;;;;5046352;28;20039;-79
2021/08/07 11:22:16;;;;;;;3.65;1.85;;;24.60;58.40;;;;;;5066410;28;20483;-80
2021/08/07 11:24:48;;;;;;;3.78;1.60;;;24.70;58.50;;;;;;5048565;28;20074;-84
2021/08/07 11:27:16;;;;;;;3.10;1.60;;;24.60;58.40;;;;;;5046474;28;20067;-81
2021/08/07 11:30:17;;;;;;;3.67;1.52;;;24.60;58.40;;;;;;5064503;28;20441;-83
2021/08/07 11:33:06;;;;;;;4.13;1.38;;;24.60;58.50;;;;;;5064345;28;20044;-82
2021/08/07 11:35:38;;;;;;;4.53;1.70;;;24.50;58.50;;;;;;5066066;28;20475;-82
2021/08/07 11:38:13;;;;;;;4.18;1.58;;;24.40;58.50;;;;;;5066250;28;20040;-81
2021/08/07 11:40:40;;;;;;;4.28;1.60;;;24.20;58.50;;;;;;5048324;28;20037;-81
2021/08/07 11:43:12;;;;;;;6.70;2.83;;;24.10;58.50;;;;;;5048302;28;20028;-82
2021/08/07 11:45:39;;;;;;;6.15;4.13;;;24.10;58.80;;;;;;5050153;28;20423;-81
2021/08/07 11:48:05;;;;;;;4.07;3.67;;;24.00;58.90;;;;;;5054721;28;20044;-79
2021/08/07 11:50:32;;;;;;;4.22;2.83;;;23.90;58.90;;;;;;5048023;28;20550;-79
2021/08/07 11:52:59;;;;;;;2.85;2.40;;;23.80;59.00;;;;;;5065960;28;20521;-83
2021/08/07 11:55:34;;;;;;;4.13;2.28;;;23.70;59.00;;;;;;5067711;28;20021;-83
2021/08/07 11:58:09;;;;;;;4.05;2.17;;;23.60;59.20;;;;;;5069756;28;20032;-81
2021/08/07 12:00:37;;;;;;;4.50;2.00;;;23.50;59.30;;;;;;5050995;28;20283;-79
2021/08/07 12:03:11;;;;;;;2.33;1.83;;;23.50;59.60;;;;;;5068933;28;20039;-81
2021/08/07 12:05:49;;;;;;;3.55;2.00;;;23.40;59.80;;;;;;5051162;28;20039;-79
2021/08/07 12:08:15;;;;;;;2.50;1.92;;;23.30;59.80;;;;;;5069449;28;20430;-88
2021/08/07 12:10:50;;;;;;;3.97;1.85;;;23.20;60.00;;;;;;5069575;28;20094;-82
2021/08/07 12:13:19;;;;;;;2.78;1.70;;;23.20;60.40;;;;;;5069443;28;20092;-85
2021/08/07 12:15:57;;;;;;;4.03;1.88;;;23.20;60.60;;;;;;5049998;28;20021;-87
2021/08/07 12:18:23;;;;;;;4.82;1.67;;;23.30;60.90;;;;;;5065129;28;20396;-80
2021/08/07 12:20:49;;;;;;;3.65;1.70;;;23.30;60.80;;;;;;5069387;28;20432;-82
2021/08/07 12:23:16;;;;;;;1.67;1.20;;;23.40;61.10;;;;;;5068711;28;20442;-84
2021/08/07 12:25:42;;;;;;;2.47;1.25;;;23.50;61.30;;;;;;5069412;28;20115;-81
2021/08/07 12:28:15;;;;;;;3.67;1.50;;;23.70;61.60;;;;;;5068547;28;20040;-82
2021/08/07 12:31:01;;;;;;;3.70;1.20;;;24.00;62.10;;;;;;5069131;28;20025;-84
2021/08/07 12:33:37;;;;;;;4.63;1.20;;;24.20;62.10;;;;;;5044478;28;20036;-80
2021/08/07 12:36:14;;;;;;;2.28;1.33;;;24.40;62.20;;;;;;5038317;28;20031;-83
2021/08/07 12:38:42;;;;;;;1.95;1.23;;;24.50;62.40;;;;;;5038514;28;20120;-79
2021/08/07 12:41:09;;;;;;;1.90;1.23;;;24.70;62.30;;;;;;5031043;28;20167;-79
2021/08/07 12:43:35;;;;;;;3.97;1.42;;;24.90;62.60;;;;;;5047945;28;20334;-81
2021/08/07 12:46:04;;;;;;;3.28;1.35;;;25.00;62.70;;;;;;5048629;28;20021;-83
2021/08/07 12:48:46;;;;;;;3.55;1.40;;;25.10;62.70;;;;;;5064008;28;20063;-82
2021/08/07 12:51:23;;;;;;;6.50;1.70;;;25.20;62.70;;;;;;5030744;28;20091;-80
2021/08/07 12:53:51;;;;;;;3.58;1.80;;;25.30;62.70;;;;;;5031044;28;20025;-86
2021/08/07 12:56:17;;;;;;;5.47;1.85;;;25.30;62.60;;;;;;5031213;28;20132;-81
2021/08/07 12:59:06;;;;;;;6.03;1.85;;;25.30;62.60;;;;;;5010690;28;20103;-84
2021/08/07 13:01:37;;;;;;;5.40;2.22;;;25.40;62.80;;;;;;5026916;28;20029;-80